NORTHEAST SUFFOLK  -  Frost Advisory Frost Advisory        NORTHWEST SUFFOLK  -  Frost Advisory Frost Advisory        SOUTHEAST SUFFOLK  -  Frost Advisory Frost Advisory        SOUTHWEST SUFFOLK  -  Frost Advisory Frost Advisory      

Active alerts

Northwest Suffolk
  Details for Northwest Suffolk Frost Advisory
Southwest Suffolk
  Details for Southwest Suffolk Frost Advisory
Northeast Suffolk
  Details for Northeast Suffolk Frost Advisory
Southeast Suffolk
  Details for Southeast Suffolk Frost Advisory


WXM80 ListenWXM80 Stop

You find our weather info also at:

UK Metoffice

WeatherCloud

Weather Underground

Northeastern Weather Network

AWEKAS

Citizen Weather Observer Program (CWOP)

HAMweather, WeatherForYou, PWS Weather


Weather Underground History page Text

Daily Summary for March 14, 2017 Units:  Both    English   Metric
« Previous Day
Next Day »
Daily Weekly Monthly Yearly Custom
  High: Low: Average:
Temperature: 35.1 °F /  1.7 °C 23.9 °F /  -4.5 °C 31.2 °F /  -0.4 °C
Dew Point: 34.6 °F /  1.4 °C 17.1 °F /  -8.3 °C 28.8 °F /  -1.8 °C
Humidity: 98 % 74 % 91 %
Wind Speed: 28.0 mph /  45.1 km/h - 13.1 mph /  21.1 km/h
Wind Gust: 39.1 mph /  62.9 km/h - -
Wind:- - SSE
Pressure: 30.25 in /  1024.3 hPa 28.98 in /  981.3 hPa -
Precipitation: 0.00 in /  0 mm    
Historical Graphs
 
 
Tabular Data for March 14, 2017
Time Temperature Dew Point Pressure Wind Wind Speed Wind Gust Humidity Rainfall Rate (Hourly)
00:00 30.3 °F /  -0.9 °C 23.0 °F /  -5 °C 30.25 in /  1024.3 hPa East 3.8 mph /  6.1 km/h 5.8 mph /  9.3 km/h 74 % 0.00 in /  0 mm
00:05 30.4 °F /  -0.9 °C 23.4 °F /  -4.8 °C 30.25 in /  1024.3 hPa East 7.2 mph /  11.6 km/h 9.0 mph /  14.5 km/h 75 % 0.00 in /  0 mm
00:10 30.4 °F /  -0.9 °C 23.1 °F /  -4.9 °C 30.24 in /  1023.9 hPa East 6.0 mph /  9.7 km/h 10.4 mph /  16.7 km/h 74 % 0.00 in /  0 mm
00:15 30.4 °F /  -0.9 °C 23.4 °F /  -4.8 °C 30.24 in /  1023.9 hPa East 6.8 mph /  10.9 km/h 9.2 mph /  14.8 km/h 75 % 0.00 in /  0 mm
00:20 30.5 °F /  -0.8 °C 23.5 °F /  -4.7 °C 30.22 in /  1023.2 hPa East 8.2 mph /  13.2 km/h 10.4 mph /  16.7 km/h 75 % 0.00 in /  0 mm
00:25 30.6 °F /  -0.8 °C 23.3 °F /  -4.8 °C 30.23 in /  1023.6 hPa East 6.8 mph /  10.9 km/h 8.1 mph /  13 km/h 74 % 0.00 in /  0 mm
00:30 30.7 °F /  -0.7 °C 23.4 °F /  -4.8 °C 30.23 in /  1023.6 hPa East 6.9 mph /  11.1 km/h 10.4 mph /  16.7 km/h 74 % 0.00 in /  0 mm
00:35 30.7 °F /  -0.7 °C 23.4 °F /  -4.8 °C 30.23 in /  1023.6 hPa East 5.7 mph /  9.2 km/h 9.2 mph /  14.8 km/h 74 % 0.00 in /  0 mm
00:40 30.7 °F /  -0.7 °C 23.4 °F /  -4.8 °C 30.23 in /  1023.6 hPa East 5.1 mph /  8.2 km/h 9.2 mph /  14.8 km/h 74 % 0.00 in /  0 mm
00:45 30.8 °F /  -0.7 °C 23.5 °F /  -4.7 °C 30.22 in /  1023.2 hPa East 5.5 mph /  8.9 km/h 8.1 mph /  13 km/h 74 % 0.00 in /  0 mm
00:50 30.8 °F /  -0.7 °C 23.8 °F /  -4.6 °C 30.22 in /  1023.2 hPa East 4.4 mph /  7.1 km/h 7.0 mph /  11.3 km/h 75 % 0.00 in /  0 mm
00:55 30.8 °F /  -0.7 °C 23.8 °F /  -4.6 °C 30.22 in /  1023.2 hPa East 3.2 mph /  5.1 km/h 8.1 mph /  13 km/h 75 % 0.00 in /  0 mm
01:00 30.8 °F /  -0.7 °C 23.5 °F /  -4.7 °C 30.23 in /  1023.6 hPa East 2.5 mph /  4 km/h 5.0 mph /  8 km/h 74 % 0.00 in /  0 mm
01:05 30.8 °F /  -0.7 °C 23.5 °F /  -4.7 °C 30.23 in /  1023.6 hPa East 3.7 mph /  6 km/h 6.9 mph /  11.1 km/h 74 % 0.00 in /  0 mm
01:10 30.8 °F /  -0.7 °C 23.5 °F /  -4.7 °C 30.23 in /  1023.6 hPa East 3.7 mph /  6 km/h 5.8 mph /  9.3 km/h 74 % 0.00 in /  0 mm
01:15 30.8 °F /  -0.7 °C 23.5 °F /  -4.7 °C 30.22 in /  1023.2 hPa East 5.4 mph /  8.7 km/h 6.9 mph /  11.1 km/h 74 % 0.00 in /  0 mm
01:20 30.8 °F /  -0.7 °C 23.5 °F /  -4.7 °C 30.22 in /  1023.2 hPa East 5.1 mph /  8.2 km/h 7.0 mph /  11.3 km/h 74 % 0.00 in /  0 mm
01:25 30.9 °F /  -0.6 °C 23.6 °F /  -4.7 °C 30.22 in /  1023.2 hPa East 5.6 mph /  9 km/h 8.0 mph /  12.9 km/h 74 % 0.00 in /  0 mm
01:30 31.0 °F /  -0.6 °C 23.7 °F /  -4.6 °C 30.21 in /  1022.9 hPa East 6.4 mph /  10.3 km/h 10.4 mph /  16.7 km/h 74 % 0.00 in /  0 mm
01:35 31.1 °F /  -0.5 °C 23.8 °F /  -4.6 °C 30.21 in /  1022.9 hPa East 5.2 mph /  8.4 km/h 8.0 mph /  12.9 km/h 74 % 0.00 in /  0 mm
01:40 31.1 °F /  -0.5 °C 23.8 °F /  -4.6 °C 30.20 in /  1022.6 hPa East 5.9 mph /  9.5 km/h 9.2 mph /  14.8 km/h 74 % 0.00 in /  0 mm
01:45 31.2 °F /  -0.4 °C 24.2 °F /  -4.3 °C 30.20 in /  1022.6 hPa East 6.1 mph /  9.8 km/h 8.0 mph /  12.9 km/h 75 % 0.00 in /  0 mm
01:50 31.3 °F /  -0.4 °C 24.3 °F /  -4.3 °C 30.20 in /  1022.6 hPa East 8.7 mph /  14 km/h 11.5 mph /  18.5 km/h 75 % 0.00 in /  0 mm
01:55 31.4 °F /  -0.3 °C 24.4 °F /  -4.2 °C 30.20 in /  1022.6 hPa East 9.0 mph /  14.5 km/h 10.4 mph /  16.7 km/h 75 % 0.00 in /  0 mm
02:00 31.4 °F /  -0.3 °C 24.1 °F /  -4.4 °C 30.20 in /  1022.6 hPa East 8.8 mph /  14.2 km/h 11.5 mph /  18.5 km/h 74 % 0.00 in /  0 mm
02:05 31.4 °F /  -0.3 °C 24.4 °F /  -4.2 °C 30.19 in /  1022.2 hPa East 11.1 mph /  17.9 km/h 13.8 mph /  22.2 km/h 75 % 0.00 in /  0 mm
02:10 31.4 °F /  -0.3 °C 25.0 °F /  -3.9 °C 30.19 in /  1022.2 hPa East 9.8 mph /  15.8 km/h 13.8 mph /  22.2 km/h 77 % 0.00 in /  0 mm
02:15 31.4 °F /  -0.3 °C 25.0 °F /  -3.9 °C 30.19 in /  1022.2 hPa ENE 8.6 mph /  13.8 km/h 11.5 mph /  18.5 km/h 77 % 0.00 in /  0 mm
02:20 31.4 °F /  -0.3 °C 25.6 °F /  -3.6 °C 30.17 in /  1021.6 hPa East 10.2 mph /  16.4 km/h 11.5 mph /  18.5 km/h 79 % 0.00 in /  0 mm
02:25 31.2 °F /  -0.4 °C 25.7 °F /  -3.5 °C 30.17 in /  1021.6 hPa East 11.0 mph /  17.7 km/h 15.0 mph /  24.1 km/h 80 % 0.00 in /  0 mm
02:30 30.8 °F /  -0.7 °C 25.7 °F /  -3.5 °C 30.17 in /  1021.6 hPa ESE 10.7 mph /  17.2 km/h 13.8 mph /  22.2 km/h 81 % 0.00 in /  0 mm
02:35 30.7 °F /  -0.7 °C 25.9 °F /  -3.4 °C 30.16 in /  1021.2 hPa East 9.9 mph /  15.9 km/h 13.8 mph /  22.2 km/h 82 % 0.00 in /  0 mm
02:40 30.5 °F /  -0.8 °C 26.0 °F /  -3.3 °C 30.16 in /  1021.2 hPa East 11.0 mph /  17.7 km/h 13.0 mph /  20.9 km/h 83 % 0.00 in /  0 mm
02:46 30.5 °F /  -0.8 °C 26.5 °F /  -3.1 °C 30.16 in /  1021.2 hPa East 12.2 mph /  19.6 km/h 15.0 mph /  24.1 km/h 85 % 0.00 in /  0 mm
02:51 30.4 °F /  -0.9 °C 26.7 °F /  -2.9 °C 30.15 in /  1020.9 hPa East 10.4 mph /  16.7 km/h 13.0 mph /  20.9 km/h 86 % 0.00 in /  0 mm
02:52 30.4 °F /  -0.9 °C 26.7 °F /  -2.9 °C 30.15 in /  1020.9 hPa East 10.9 mph /  17.5 km/h 12.7 mph /  20.4 km/h 86 % 0.00 in /  0 mm
02:57 30.3 °F /  -0.9 °C 27.2 °F /  -2.7 °C 30.13 in /  1020.2 hPa East 11.1 mph /  17.9 km/h 11.5 mph /  18.5 km/h 88 % 0.00 in /  0 mm
03:02 30.2 °F /  -1 °C 27.3 °F /  -2.6 °C 30.12 in /  1019.9 hPa ENE 10.8 mph /  17.4 km/h 13.0 mph /  20.9 km/h 89 % 0.00 in /  0 mm
03:07 30.1 °F /  -1.1 °C 27.5 °F /  -2.5 °C 30.12 in /  1019.9 hPa ENE 11.5 mph /  18.5 km/h 15.0 mph /  24.1 km/h 90 % 0.00 in /  0 mm
03:12 30.1 °F /  -1.1 °C 27.8 °F /  -2.3 °C 30.12 in /  1019.9 hPa ESE 11.4 mph /  18.3 km/h 12.0 mph /  19.3 km/h 91 % 0.00 in /  0 mm
03:17 30.1 °F /  -1.1 °C 28.1 °F /  -2.2 °C 30.11 in /  1019.5 hPa East 11.1 mph /  17.9 km/h 14.0 mph /  22.5 km/h 92 % 0.00 in /  0 mm
03:22 30.1 °F /  -1.1 °C 28.1 °F /  -2.2 °C 30.10 in /  1019.2 hPa ENE 12.2 mph /  19.6 km/h 16.0 mph /  25.7 km/h 92 % 0.00 in /  0 mm
03:27 30.1 °F /  -1.1 °C 28.1 °F /  -2.2 °C 30.10 in /  1019.2 hPa East 10.8 mph /  17.4 km/h 17.3 mph /  27.8 km/h 92 % 0.00 in /  0 mm
03:32 30.0 °F /  -1.1 °C 28.0 °F /  -2.2 °C 30.09 in /  1018.8 hPa East 11.5 mph /  18.5 km/h 15.0 mph /  24.1 km/h 92 % 0.00 in /  0 mm
03:37 30.0 °F /  -1.1 °C 28.2 °F /  -2.1 °C 30.09 in /  1018.8 hPa ENE 11.0 mph /  17.7 km/h 16.1 mph /  25.9 km/h 93 % 0.00 in /  0 mm
03:42 29.9 °F /  -1.2 °C 28.1 °F /  -2.2 °C 30.08 in /  1018.5 hPa East 13.7 mph /  22 km/h 15.0 mph /  24.1 km/h 93 % 0.00 in /  0 mm
03:47 29.9 °F /  -1.2 °C 28.1 °F /  -2.2 °C 30.07 in /  1018.2 hPa ENE 11.0 mph /  17.7 km/h 17.3 mph /  27.8 km/h 93 % 0.00 in /  0 mm
03:52 29.9 °F /  -1.2 °C 28.1 °F /  -2.2 °C 30.06 in /  1017.8 hPa East 12.9 mph /  20.8 km/h 18.4 mph /  29.6 km/h 93 % 0.00 in /  0 mm
03:57 29.9 °F /  -1.2 °C 28.4 °F /  -2 °C 30.05 in /  1017.5 hPa East 12.8 mph /  20.6 km/h 14.0 mph /  22.5 km/h 94 % 0.00 in /  0 mm
04:02 29.9 °F /  -1.2 °C 28.4 °F /  -2 °C 30.05 in /  1017.5 hPa East 13.5 mph /  21.7 km/h 18.0 mph /  29 km/h 94 % 0.00 in /  0 mm
04:07 30.0 °F /  -1.1 °C 28.5 °F /  -1.9 °C 30.05 in /  1017.5 hPa ENE 14.0 mph /  22.5 km/h 19.6 mph /  31.5 km/h 94 % 0.01 in /  0.25 mm
04:12 30.1 °F /  -1.1 °C 28.6 °F /  -1.9 °C 30.03 in /  1016.8 hPa East 13.3 mph /  21.4 km/h 17.3 mph /  27.8 km/h 94 % 0.01 in /  0.25 mm
04:17 30.3 °F /  -0.9 °C 28.8 °F /  -1.8 °C 30.03 in /  1016.8 hPa East 15.6 mph /  25.1 km/h 25.3 mph /  40.7 km/h 94 % 0.01 in /  0.25 mm
04:22 30.3 °F /  -0.9 °C 28.8 °F /  -1.8 °C 30.02 in /  1016.5 hPa East 12.7 mph /  20.4 km/h 16.1 mph /  25.9 km/h 94 % 0.01 in /  0.25 mm
04:27 30.4 °F /  -0.9 °C 29.1 °F /  -1.6 °C 30.01 in /  1016.1 hPa East 13.9 mph /  22.4 km/h 17.3 mph /  27.8 km/h 95 % 0.01 in /  0.25 mm
04:32 30.5 °F /  -0.8 °C 29.2 °F /  -1.6 °C 30.01 in /  1016.1 hPa ENE 14.0 mph /  22.5 km/h 17.3 mph /  27.8 km/h 95 % 0.01 in /  0.25 mm
04:37 30.4 °F /  -0.9 °C 29.1 °F /  -1.6 °C 30.00 in /  1015.8 hPa East 15.3 mph /  24.6 km/h 18.4 mph /  29.6 km/h 95 % 0.01 in /  0.25 mm
04:42 30.3 °F /  -0.9 °C 29.0 °F /  -1.7 °C 30.00 in /  1015.8 hPa East 14.3 mph /  23 km/h 18.0 mph /  29 km/h 95 % 0.01 in /  0.25 mm
04:47 30.4 °F /  -0.9 °C 29.1 °F /  -1.6 °C 29.99 in /  1015.5 hPa ENE 17.8 mph /  28.6 km/h 24.2 mph /  38.9 km/h 95 % 0.01 in /  0.25 mm
04:52 30.5 °F /  -0.8 °C 29.2 °F /  -1.6 °C 29.98 in /  1015.1 hPa East 14.6 mph /  23.5 km/h 20.7 mph /  33.3 km/h 95 % 0.02 in /  0.51 mm
04:57 30.6 °F /  -0.8 °C 29.3 °F /  -1.5 °C 29.98 in /  1015.1 hPa East 15.0 mph /  24.1 km/h 21.9 mph /  35.2 km/h 95 % 0.02 in /  0.51 mm
05:02 30.6 °F /  -0.8 °C 29.3 °F /  -1.5 °C 29.97 in /  1014.8 hPa East 18.8 mph /  30.3 km/h 26.5 mph /  42.6 km/h 95 % 0.02 in /  0.51 mm
05:07 30.7 °F /  -0.7 °C 29.4 °F /  -1.4 °C 29.97 in /  1014.8 hPa NE 16.1 mph /  25.9 km/h 20.7 mph /  33.3 km/h 95 % 0.01 in /  0.25 mm
05:13 31.0 °F /  -0.6 °C 29.7 °F /  -1.3 °C 29.97 in /  1014.8 hPa East 13.8 mph /  22.2 km/h 16.1 mph /  25.9 km/h 95 % 0.01 in /  0.25 mm
05:18 31.1 °F /  -0.5 °C 29.8 °F /  -1.2 °C 29.97 in /  1014.8 hPa East 15.8 mph /  25.4 km/h 19.6 mph /  31.5 km/h 95 % 0.01 in /  0.25 mm
05:23 31.2 °F /  -0.4 °C 29.9 °F /  -1.2 °C 29.96 in /  1014.4 hPa ENE 14.8 mph /  23.8 km/h 20.7 mph /  33.3 km/h 95 % 0.01 in /  0.25 mm
05:28 31.2 °F /  -0.4 °C 29.9 °F /  -1.2 °C 29.95 in /  1014.1 hPa ENE 16.5 mph /  26.6 km/h 23.0 mph /  37 km/h 95 % 0.01 in /  0.25 mm
05:33 31.2 °F /  -0.4 °C 29.9 °F /  -1.2 °C 29.95 in /  1014.1 hPa ENE 16.3 mph /  26.2 km/h 24.2 mph /  38.9 km/h 95 % 0.01 in /  0.25 mm
05:35 31.3 °F /  -0.4 °C 30.3 °F /  -0.9 °C 29.94 in /  1013.8 hPa ENE 15.3 mph /  24.6 km/h 19.6 mph /  31.5 km/h 96 % 0.01 in /  0.25 mm
05:40 31.4 °F /  -0.3 °C 30.4 °F /  -0.9 °C 29.93 in /  1013.4 hPa ENE 14.7 mph /  23.7 km/h 21.0 mph /  33.8 km/h 96 % 0.02 in /  0.51 mm
05:41 31.5 °F /  -0.3 °C 30.5 °F /  -0.8 °C 29.93 in /  1013.4 hPa ENE 16.4 mph /  26.4 km/h 20.0 mph /  32.2 km/h 96 % 0.02 in /  0.51 mm
05:46 31.6 °F /  -0.2 °C 30.6 °F /  -0.8 °C 29.93 in /  1013.4 hPa ENE 15.4 mph /  24.8 km/h 25.3 mph /  40.7 km/h 96 % 0.02 in /  0.51 mm
05:51 31.7 °F /  -0.2 °C 30.7 °F /  -0.7 °C 29.93 in /  1013.4 hPa East 20.7 mph /  33.3 km/h 24.2 mph /  38.9 km/h 96 % 0.01 in /  0.25 mm
05:56 31.7 °F /  -0.2 °C 30.7 °F /  -0.7 °C 29.92 in /  1013.1 hPa NE 14.3 mph /  23 km/h 20.7 mph /  33.3 km/h 96 % 0.01 in /  0.25 mm
06:01 31.7 °F /  -0.2 °C 30.7 °F /  -0.7 °C 29.92 in /  1013.1 hPa ENE 19.4 mph /  31.2 km/h 27.6 mph /  44.4 km/h 96 % 0.01 in /  0.25 mm
06:06 31.6 °F /  -0.2 °C 30.6 °F /  -0.8 °C 29.91 in /  1012.8 hPa East 17.0 mph /  27.4 km/h 17.3 mph /  27.8 km/h 96 % 0.01 in /  0.25 mm
06:11 31.5 °F /  -0.3 °C 30.5 °F /  -0.8 °C 29.90 in /  1012.4 hPa East 19.0 mph /  30.6 km/h 31.1 mph /  50 km/h 96 % 0.02 in /  0.51 mm
06:16 31.6 °F /  -0.2 °C 30.6 °F /  -0.8 °C 29.90 in /  1012.4 hPa ENE 16.8 mph /  27 km/h 24.2 mph /  38.9 km/h 96 % 0.02 in /  0.51 mm
06:21 31.6 °F /  -0.2 °C 30.6 °F /  -0.8 °C 29.89 in /  1012.1 hPa ENE 17.3 mph /  27.8 km/h 24.2 mph /  38.9 km/h 96 % 0.02 in /  0.51 mm
06:26 31.5 °F /  -0.3 °C 30.5 °F /  -0.8 °C 29.88 in /  1011.7 hPa ENE 18.7 mph /  30.1 km/h 27.0 mph /  43.5 km/h 96 % 0.02 in /  0.51 mm
06:31 31.5 °F /  -0.3 °C 30.5 °F /  -0.8 °C 29.87 in /  1011.4 hPa East 20.2 mph /  32.5 km/h 26.5 mph /  42.6 km/h 96 % 0.02 in /  0.51 mm
06:36 31.5 °F /  -0.3 °C 30.5 °F /  -0.8 °C 29.87 in /  1011.4 hPa ENE 17.1 mph /  27.5 km/h 24.2 mph /  38.9 km/h 96 % 0.03 in /  0.76 mm
06:41 31.5 °F /  -0.3 °C 30.5 °F /  -0.8 °C 29.86 in /  1011.1 hPa ENE 20.9 mph /  33.6 km/h 27.6 mph /  44.4 km/h 96 % 0.02 in /  0.51 mm
06:46 31.5 °F /  -0.3 °C 30.5 °F /  -0.8 °C 29.85 in /  1010.7 hPa ENE 18.8 mph /  30.3 km/h 22.0 mph /  35.4 km/h 96 % 0.02 in /  0.51 mm
06:51 31.4 °F /  -0.3 °C 30.4 °F /  -0.9 °C 29.84 in /  1010.4 hPa ENE 21.7 mph /  34.9 km/h 30.0 mph /  48.3 km/h 96 % 0.02 in /  0.51 mm
06:56 31.4 °F /  -0.3 °C 30.4 °F /  -0.9 °C 29.84 in /  1010.4 hPa NE 19.8 mph /  31.9 km/h 26.5 mph /  42.6 km/h 96 % 0.02 in /  0.51 mm
07:02 31.3 °F /  -0.4 °C 30.3 °F /  -0.9 °C 29.83 in /  1010 hPa East 21.1 mph /  34 km/h 26.5 mph /  42.6 km/h 96 % 0.02 in /  0.51 mm
07:07 31.3 °F /  -0.4 °C 30.3 °F /  -0.9 °C 29.83 in /  1010 hPa ENE 19.1 mph /  30.7 km/h 26.5 mph /  42.6 km/h 96 % 0.03 in /  0.76 mm
07:12 31.1 °F /  -0.5 °C 30.1 °F /  -1.1 °C 29.82 in /  1009.7 hPa ENE 21.4 mph /  34.4 km/h 28.8 mph /  46.3 km/h 96 % 0.02 in /  0.51 mm
07:17 31.1 °F /  -0.5 °C 30.1 °F /  -1.1 °C 29.81 in /  1009.4 hPa East 21.8 mph /  35.1 km/h 28.0 mph /  45.1 km/h 96 % 0.02 in /  0.51 mm
07:22 31.1 °F /  -0.5 °C 30.1 °F /  -1.1 °C 29.82 in /  1009.7 hPa ENE 22.2 mph /  35.7 km/h 27.6 mph /  44.4 km/h 96 % 0.02 in /  0.51 mm
07:27 31.1 °F /  -0.5 °C 30.1 °F /  -1.1 °C 29.81 in /  1009.4 hPa ENE 21.0 mph /  33.8 km/h 27.6 mph /  44.4 km/h 96 % 0.03 in /  0.76 mm
07:32 31.2 °F /  -0.4 °C 30.2 °F /  -1 °C 29.80 in /  1009 hPa NE 19.2 mph /  30.9 km/h 26.5 mph /  42.6 km/h 96 % 0.03 in /  0.76 mm
07:37 31.2 °F /  -0.4 °C 30.2 °F /  -1 °C 29.80 in /  1009 hPa East 18.6 mph /  29.9 km/h 26.5 mph /  42.6 km/h 96 % 0.02 in /  0.51 mm
07:42 31.4 °F /  -0.3 °C 30.6 °F /  -0.8 °C 29.80 in /  1009 hPa ENE 18.1 mph /  29.1 km/h 26.5 mph /  42.6 km/h 97 % 0.03 in /  0.76 mm
07:48 31.4 °F /  -0.3 °C 30.6 °F /  -0.8 °C 29.79 in /  1008.7 hPa ENE 19.2 mph /  30.9 km/h 28.8 mph /  46.3 km/h 97 % 0.04 in /  1.02 mm
07:53 31.4 °F /  -0.3 °C 30.6 °F /  -0.8 °C 29.79 in /  1008.7 hPa NE 23.2 mph /  37.3 km/h 34.5 mph /  55.5 km/h 97 % 0.05 in /  1.27 mm
07:58 31.5 °F /  -0.3 °C 30.7 °F /  -0.7 °C 29.78 in /  1008.4 hPa ENE 22.3 mph /  35.9 km/h 29.9 mph /  48.1 km/h 97 % 0.06 in /  1.52 mm
08:03 31.5 °F /  -0.3 °C 30.7 °F /  -0.7 °C 29.77 in /  1008 hPa NE 19.3 mph /  31.1 km/h 28.8 mph /  46.3 km/h 97 % 0.07 in /  1.78 mm
08:08 31.6 °F /  -0.2 °C 30.8 °F /  -0.7 °C 29.77 in /  1008 hPa East 18.9 mph /  30.4 km/h 29.9 mph /  48.1 km/h 97 % 0.08 in /  2.03 mm
08:13 31.6 °F /  -0.2 °C 30.8 °F /  -0.7 °C 29.77 in /  1008 hPa ENE 19.5 mph /  31.4 km/h 26.5 mph /  42.6 km/h 97 % 0.09 in /  2.29 mm
08:18 31.5 °F /  -0.3 °C 30.7 °F /  -0.7 °C 29.77 in /  1008 hPa East 23.6 mph /  38 km/h 28.8 mph /  46.3 km/h 97 % 0.10 in /  2.54 mm
08:20 31.5 °F /  -0.3 °C 30.7 °F /  -0.7 °C 29.76 in /  1007.7 hPa NE 21.4 mph /  34.4 km/h 31.1 mph /  50 km/h 97 % 0.10 in /  2.54 mm
08:25 31.6 °F /  -0.2 °C 30.8 °F /  -0.7 °C 29.76 in /  1007.7 hPa East 19.7 mph /  31.7 km/h 25.3 mph /  40.7 km/h 97 % 0.10 in /  2.54 mm
08:30 31.5 °F /  -0.3 °C 30.7 °F /  -0.7 °C 29.76 in /  1007.7 hPa ENE 17.7 mph /  28.5 km/h 26.5 mph /  42.6 km/h 97 % 0.10 in /  2.54 mm
08:35 31.5 °F /  -0.3 °C 30.7 °F /  -0.7 °C 29.75 in /  1007.3 hPa ENE 17.4 mph /  28 km/h 28.8 mph /  46.3 km/h 97 % 0.11 in /  2.79 mm
08:40 31.5 °F /  -0.3 °C 30.7 °F /  -0.7 °C 29.74 in /  1007 hPa ENE 21.1 mph /  34 km/h 28.8 mph /  46.3 km/h 97 % 0.11 in /  2.79 mm
08:45 31.5 °F /  -0.3 °C 30.7 °F /  -0.7 °C 29.73 in /  1006.7 hPa ENE 20.8 mph /  33.5 km/h 26.5 mph /  42.6 km/h 97 % 0.10 in /  2.54 mm
08:50 31.5 °F /  -0.3 °C 30.7 °F /  -0.7 °C 29.72 in /  1006.3 hPa East 20.8 mph /  33.5 km/h 26.5 mph /  42.6 km/h 97 % 0.10 in /  2.54 mm
08:55 31.5 °F /  -0.3 °C 30.7 °F /  -0.7 °C 29.71 in /  1006 hPa East 22.3 mph /  35.9 km/h 28.8 mph /  46.3 km/h 97 % 0.10 in /  2.54 mm
09:00 31.5 °F /  -0.3 °C 30.7 °F /  -0.7 °C 29.70 in /  1005.6 hPa ENE 24.5 mph /  39.4 km/h 31.1 mph /  50 km/h 97 % 0.09 in /  2.29 mm
09:05 31.5 °F /  -0.3 °C 30.7 °F /  -0.7 °C 29.70 in /  1005.6 hPa ENE 19.1 mph /  30.7 km/h 25.3 mph /  40.7 km/h 97 % 0.09 in /  2.29 mm
09:10 31.5 °F /  -0.3 °C 30.7 °F /  -0.7 °C 29.69 in /  1005.3 hPa ENE 22.2 mph /  35.7 km/h 35.7 mph /  57.5 km/h 97 % 0.09 in /  2.29 mm
09:15 31.5 °F /  -0.3 °C 30.7 °F /  -0.7 °C 29.68 in /  1005 hPa East 21.9 mph /  35.2 km/h 29.0 mph /  46.7 km/h 97 % 0.08 in /  2.03 mm
09:20 31.5 °F /  -0.3 °C 30.7 °F /  -0.7 °C 29.67 in /  1004.6 hPa East 25.5 mph /  41 km/h 34.5 mph /  55.5 km/h 97 % 0.08 in /  2.03 mm
09:25 31.5 °F /  -0.3 °C 30.7 °F /  -0.7 °C 29.66 in /  1004.3 hPa ENE 22.0 mph /  35.4 km/h 33.4 mph /  53.8 km/h 97 % 0.08 in /  2.03 mm
09:30 31.5 °F /  -0.3 °C 30.7 °F /  -0.7 °C 29.64 in /  1003.6 hPa ENE 22.4 mph /  36 km/h 31.1 mph /  50 km/h 97 % 0.09 in /  2.29 mm
09:35 31.6 °F /  -0.2 °C 30.8 °F /  -0.7 °C 29.63 in /  1003.3 hPa ENE 23.5 mph /  37.8 km/h 27.6 mph /  44.4 km/h 97 % 0.09 in /  2.29 mm
09:40 31.6 °F /  -0.2 °C 30.8 °F /  -0.7 °C 29.62 in /  1002.9 hPa ENE 20.3 mph /  32.7 km/h 27.0 mph /  43.5 km/h 97 % 0.08 in /  2.03 mm
09:45 31.7 °F /  -0.2 °C 30.9 °F /  -0.6 °C 29.60 in /  1002.3 hPa ENE 22.0 mph /  35.4 km/h 31.1 mph /  50 km/h 97 % 0.09 in /  2.29 mm
09:50 31.7 °F /  -0.2 °C 30.9 °F /  -0.6 °C 29.59 in /  1001.9 hPa ENE 22.8 mph /  36.7 km/h 39.1 mph /  62.9 km/h 97 % 0.09 in /  2.29 mm
09:55 31.8 °F /  -0.1 °C 31.0 °F /  -0.6 °C 29.58 in /  1001.6 hPa ENE 21.6 mph /  34.8 km/h 31.1 mph /  50 km/h 97 % 0.09 in /  2.29 mm
10:00 31.9 °F /  -0.1 °C 31.1 °F /  -0.5 °C 29.56 in /  1000.9 hPa East 20.4 mph /  32.8 km/h 33.0 mph /  53.1 km/h 97 % 0.10 in /  2.54 mm
10:06 32.0 °F /  0 °C 31.2 °F /  -0.4 °C 29.52 in /  999.5 hPa East 23.9 mph /  38.5 km/h 31.1 mph /  50 km/h 97 % 0.10 in /  2.54 mm
10:11 32.0 °F /  0 °C 31.2 °F /  -0.4 °C 29.50 in /  998.9 hPa NE 20.6 mph /  33.2 km/h 35.0 mph /  56.3 km/h 97 % 0.09 in /  2.29 mm
10:16 32.1 °F /  0.1 °C 31.3 °F /  -0.4 °C 29.50 in /  998.9 hPa ENE 18.1 mph /  29.1 km/h 27.6 mph /  44.4 km/h 97 % 0.10 in /  2.54 mm
10:21 32.3 °F /  0.2 °C 31.5 °F /  -0.3 °C 29.48 in /  998.2 hPa ENE 20.5 mph /  33 km/h 29.9 mph /  48.1 km/h 97 % 0.10 in /  2.54 mm
10:26 32.4 °F /  0.2 °C 31.6 °F /  -0.2 °C 29.46 in /  997.5 hPa East 21.5 mph /  34.6 km/h 38.0 mph /  61.2 km/h 97 % 0.10 in /  2.54 mm
10:31 32.5 °F /  0.3 °C 31.7 °F /  -0.2 °C 29.45 in /  997.2 hPa ENE 28.0 mph /  45.1 km/h 34.0 mph /  54.7 km/h 97 % 0.10 in /  2.54 mm
10:36 32.6 °F /  0.3 °C 31.8 °F /  -0.1 °C 29.44 in /  996.8 hPa East 20.3 mph /  32.7 km/h 34.5 mph /  55.5 km/h 97 % 0.10 in /  2.54 mm
10:41 32.8 °F /  0.4 °C 32.0 °F /  0 °C 29.42 in /  996.2 hPa ENE 23.0 mph /  37 km/h 31.1 mph /  50 km/h 97 % 0.10 in /  2.54 mm
10:46 32.8 °F /  0.4 °C 32.0 °F /  0 °C 29.42 in /  996.2 hPa ENE 24.5 mph /  39.4 km/h 29.9 mph /  48.1 km/h 97 % 0.10 in /  2.54 mm
10:51 32.9 °F /  0.5 °C 32.1 °F /  0.1 °C 29.40 in /  995.5 hPa ENE 23.6 mph /  38 km/h 30.0 mph /  48.3 km/h 97 % 0.10 in /  2.54 mm
10:56 33.0 °F /  0.6 °C 32.2 °F /  0.1 °C 29.40 in /  995.5 hPa ENE 22.8 mph /  36.7 km/h 29.9 mph /  48.1 km/h 97 % 0.10 in /  2.54 mm
11:02 33.0 °F /  0.6 °C 32.2 °F /  0.1 °C 29.39 in /  995.1 hPa ENE 20.4 mph /  32.8 km/h 33.4 mph /  53.8 km/h 97 % 0.10 in /  2.54 mm
11:07 33.2 °F /  0.7 °C 32.4 °F /  0.2 °C 29.38 in /  994.8 hPa ENE 21.4 mph /  34.4 km/h 31.0 mph /  49.9 km/h 97 % 0.10 in /  2.54 mm
11:12 33.3 °F /  0.7 °C 32.5 °F /  0.3 °C 29.36 in /  994.1 hPa ENE 20.5 mph /  33 km/h 28.8 mph /  46.3 km/h 97 % 0.09 in /  2.29 mm
11:17 33.5 °F /  0.8 °C 32.7 °F /  0.4 °C 29.36 in /  994.1 hPa ENE 24.4 mph /  39.3 km/h 29.0 mph /  46.7 km/h 97 % 0.10 in /  2.54 mm
11:22 33.7 °F /  0.9 °C 32.9 °F /  0.5 °C 29.36 in /  994.1 hPa East 24.5 mph /  39.4 km/h 31.1 mph /  50 km/h 97 % 0.10 in /  2.54 mm
11:27 33.8 °F /  1 °C 33.0 °F /  0.6 °C 29.36 in /  994.1 hPa NE 20.9 mph /  33.6 km/h 28.8 mph /  46.3 km/h 97 % 0.09 in /  2.29 mm
11:32 33.9 °F /  1.1 °C 33.1 °F /  0.6 °C 29.34 in /  993.5 hPa ENE 23.9 mph /  38.5 km/h 33.4 mph /  53.8 km/h 97 % 0.08 in /  2.03 mm
11:34 33.9 °F /  1.1 °C 33.1 °F /  0.6 °C 29.34 in /  993.5 hPa East 22.3 mph /  35.9 km/h 34.5 mph /  55.5 km/h 97 % 0.07 in /  1.78 mm
11:39 34.1 °F /  1.2 °C 33.3 °F /  0.7 °C 29.35 in /  993.8 hPa East 21.3 mph /  34.3 km/h 28.0 mph /  45.1 km/h 97 % 0.08 in /  2.03 mm
11:44 34.1 °F /  1.2 °C 33.3 °F /  0.7 °C 29.33 in /  993.1 hPa East 18.6 mph /  29.9 km/h 27.0 mph /  43.5 km/h 97 % 0.07 in /  1.78 mm
11:49 34.3 °F /  1.3 °C 33.5 °F /  0.8 °C 29.32 in /  992.8 hPa ENE 19.5 mph /  31.4 km/h 27.0 mph /  43.5 km/h 97 % 0.07 in /  1.78 mm
11:54 34.2 °F /  1.2 °C 33.4 °F /  0.8 °C 29.31 in /  992.4 hPa ENE 17.7 mph /  28.5 km/h 24.2 mph /  38.9 km/h 97 % 0.06 in /  1.52 mm
11:59 34.4 °F /  1.3 °C 33.6 °F /  0.9 °C 29.31 in /  992.4 hPa ENE 19.1 mph /  30.7 km/h 26.5 mph /  42.6 km/h 97 % 0.05 in /  1.27 mm
12:04 34.4 °F /  1.3 °C 33.6 °F /  0.9 °C 29.31 in /  992.4 hPa NE 15.4 mph /  24.8 km/h 25.3 mph /  40.7 km/h 97 % 0.06 in /  1.52 mm
12:09 34.4 °F /  1.3 °C 33.6 °F /  0.9 °C 29.30 in /  992.1 hPa NNE 18.3 mph /  29.5 km/h 26.5 mph /  42.6 km/h 97 % 0.05 in /  1.27 mm
12:14 34.4 °F /  1.3 °C 33.6 °F /  0.9 °C 29.29 in /  991.8 hPa East 14.0 mph /  22.5 km/h 18.4 mph /  29.6 km/h 97 % 0.04 in /  1.02 mm
12:19 34.4 °F /  1.3 °C 33.6 °F /  0.9 °C 29.28 in /  991.4 hPa ENE 14.1 mph /  22.7 km/h 19.6 mph /  31.5 km/h 97 % 0.05 in /  1.27 mm
12:24 34.5 °F /  1.4 °C 33.7 °F /  0.9 °C 29.27 in /  991.1 hPa NE 13.4 mph /  21.6 km/h 19.6 mph /  31.5 km/h 97 % 0.04 in /  1.02 mm
12:29 34.6 °F /  1.4 °C 33.8 °F /  1 °C 29.26 in /  990.7 hPa East 14.3 mph /  23 km/h 21.9 mph /  35.2 km/h 97 % 0.05 in /  1.27 mm
12:34 34.5 °F /  1.4 °C 33.7 °F /  0.9 °C 29.25 in /  990.4 hPa NE 11.4 mph /  18.3 km/h 19.6 mph /  31.5 km/h 97 % 0.05 in /  1.27 mm
12:39 34.6 °F /  1.4 °C 33.8 °F /  1 °C 29.23 in /  989.7 hPa NE 14.4 mph /  23.2 km/h 20.7 mph /  33.3 km/h 97 % 0.05 in /  1.27 mm
12:44 34.6 °F /  1.4 °C 33.8 °F /  1 °C 29.22 in /  989.4 hPa ENE 9.8 mph /  15.8 km/h 15.0 mph /  24.1 km/h 97 % 0.05 in /  1.27 mm
12:49 34.5 °F /  1.4 °C 33.7 °F /  0.9 °C 29.22 in /  989.4 hPa ENE 12.0 mph /  19.3 km/h 23.0 mph /  37 km/h 97 % 0.04 in /  1.02 mm
12:54 34.5 °F /  1.4 °C 33.7 °F /  0.9 °C 29.21 in /  989.1 hPa NE 11.1 mph /  17.9 km/h 17.3 mph /  27.8 km/h 97 % 0.05 in /  1.27 mm
12:59 34.5 °F /  1.4 °C 33.7 °F /  0.9 °C 29.21 in /  989.1 hPa ENE 8.6 mph /  13.8 km/h 18.4 mph /  29.6 km/h 97 % 0.05 in /  1.27 mm
13:04 34.7 °F /  1.5 °C 33.9 °F /  1.1 °C 29.19 in /  988.4 hPa NE 9.2 mph /  14.8 km/h 16.1 mph /  25.9 km/h 97 % 0.04 in /  1.02 mm
13:09 34.8 °F /  1.6 °C 34.0 °F /  1.1 °C 29.17 in /  987.7 hPa NE 13.4 mph /  21.6 km/h 25.3 mph /  40.7 km/h 97 % 0.05 in /  1.27 mm
13:14 34.8 °F /  1.6 °C 34.3 °F /  1.3 °C 29.13 in /  986.3 hPa NE 11.9 mph /  19.2 km/h 18.4 mph /  29.6 km/h 98 % 0.05 in /  1.27 mm
13:19 34.7 °F /  1.5 °C 34.2 °F /  1.2 °C 29.12 in /  986 hPa NNE 11.0 mph /  17.7 km/h 16.1 mph /  25.9 km/h 98 % 0.04 in /  1.02 mm
13:24 34.7 °F /  1.5 °C 33.9 °F /  1.1 °C 29.12 in /  986 hPa NNE 12.6 mph /  20.3 km/h 26.5 mph /  42.6 km/h 97 % 0.05 in /  1.27 mm
13:29 34.7 °F /  1.5 °C 34.2 °F /  1.2 °C 29.12 in /  986 hPa North 9.2 mph /  14.8 km/h 18.4 mph /  29.6 km/h 98 % 0.04 in /  1.02 mm
13:34 34.7 °F /  1.5 °C 34.2 °F /  1.2 °C 29.12 in /  986 hPa NE 12.4 mph /  20 km/h 19.6 mph /  31.5 km/h 98 % 0.04 in /  1.02 mm
13:39 34.7 °F /  1.5 °C 34.2 °F /  1.2 °C 29.11 in /  985.7 hPa NE 13.6 mph /  21.9 km/h 19.6 mph /  31.5 km/h 98 % 0.04 in /  1.02 mm
13:44 34.7 °F /  1.5 °C 33.9 °F /  1.1 °C 29.10 in /  985.3 hPa NNE 14.4 mph /  23.2 km/h 20.7 mph /  33.3 km/h 97 % 0.04 in /  1.02 mm
13:49 34.8 °F /  1.6 °C 34.3 °F /  1.3 °C 29.09 in /  985 hPa NNE 17.9 mph /  28.8 km/h 24.2 mph /  38.9 km/h 98 % 0.04 in /  1.02 mm
13:54 34.8 °F /  1.6 °C 34.3 °F /  1.3 °C 29.08 in /  984.6 hPa NNE 16.0 mph /  25.7 km/h 20.7 mph /  33.3 km/h 98 % 0.03 in /  0.76 mm
13:59 34.9 °F /  1.6 °C 34.4 °F /  1.3 °C 29.07 in /  984.3 hPa NNE 17.2 mph /  27.7 km/h 24.0 mph /  38.6 km/h 98 % 0.04 in /  1.02 mm
14:04 34.9 °F /  1.6 °C 34.4 °F /  1.3 °C 29.09 in /  985 hPa North 13.1 mph /  21.1 km/h 21.9 mph /  35.2 km/h 98 % 0.04 in /  1.02 mm
14:09 35.0 °F /  1.7 °C 34.5 °F /  1.4 °C 29.05 in /  983.6 hPa NNE 14.1 mph /  22.7 km/h 19.6 mph /  31.5 km/h 98 % 0.03 in /  0.76 mm
14:14 35.1 °F /  1.7 °C 34.6 °F /  1.4 °C 29.06 in /  984 hPa NNE 16.5 mph /  26.6 km/h 21.9 mph /  35.2 km/h 98 % 0.03 in /  0.76 mm
14:19 35.1 °F /  1.7 °C 34.3 °F /  1.3 °C 29.04 in /  983.3 hPa NE 15.8 mph /  25.4 km/h 26.5 mph /  42.6 km/h 97 % 0.03 in /  0.76 mm
14:24 35.1 °F /  1.7 °C 34.3 °F /  1.3 °C 29.05 in /  983.6 hPa NE 16.1 mph /  25.9 km/h 23.0 mph /  37 km/h 97 % 0.03 in /  0.76 mm
14:29 35.1 °F /  1.7 °C 34.3 °F /  1.3 °C 29.05 in /  983.6 hPa NNW 15.0 mph /  24.1 km/h 24.0 mph /  38.6 km/h 97 % 0.03 in /  0.76 mm
14:34 35.0 °F /  1.7 °C 34.2 °F /  1.2 °C 29.03 in /  983 hPa NNE 16.9 mph /  27.2 km/h 26.5 mph /  42.6 km/h 97 % 0.03 in /  0.76 mm
14:39 35.0 °F /  1.7 °C 34.5 °F /  1.4 °C 29.02 in /  982.6 hPa NNE 15.4 mph /  24.8 km/h 24.2 mph /  38.9 km/h 98 % 0.02 in /  0.51 mm
14:44 35.0 °F /  1.7 °C 34.5 °F /  1.4 °C 29.00 in /  981.9 hPa NNE 16.3 mph /  26.2 km/h 23.0 mph /  37 km/h 98 % 0.02 in /  0.51 mm
14:49 35.0 °F /  1.7 °C 34.5 °F /  1.4 °C 29.00 in /  981.9 hPa NNE 15.5 mph /  24.9 km/h 19.6 mph /  31.5 km/h 98 % 0.03 in /  0.76 mm
14:55 35.0 °F /  1.7 °C 34.5 °F /  1.4 °C 28.99 in /  981.6 hPa North 15.6 mph /  25.1 km/h 21.0 mph /  33.8 km/h 98 % 0.03 in /  0.76 mm
15:00 34.9 °F /  1.6 °C 34.4 °F /  1.3 °C 29.01 in /  982.3 hPa North 9.2 mph /  14.8 km/h 15.0 mph /  24.1 km/h 98 % 0.02 in /  0.51 mm
15:05 34.9 °F /  1.6 °C 34.4 °F /  1.3 °C 29.01 in /  982.3 hPa NNE 11.1 mph /  17.9 km/h 18.4 mph /  29.6 km/h 98 % 0.02 in /  0.51 mm
15:10 34.8 °F /  1.6 °C 34.3 °F /  1.3 °C 29.01 in /  982.3 hPa NNE 11.4 mph /  18.3 km/h 17.0 mph /  27.4 km/h 98 % 0.02 in /  0.51 mm
15:15 34.7 °F /  1.5 °C 34.2 °F /  1.2 °C 29.01 in /  982.3 hPa NNE 9.3 mph /  15 km/h 17.3 mph /  27.8 km/h 98 % 0.03 in /  0.76 mm
15:20 34.7 °F /  1.5 °C 34.2 °F /  1.2 °C 29.00 in /  981.9 hPa North 8.2 mph /  13.2 km/h 16.0 mph /  25.7 km/h 98 % 0.02 in /  0.51 mm
15:25 34.6 °F /  1.4 °C 34.1 °F /  1.2 °C 29.00 in /  981.9 hPa NNW 8.8 mph /  14.2 km/h 18.0 mph /  29 km/h 98 % 0.02 in /  0.51 mm
15:30 34.4 °F /  1.3 °C 33.6 °F /  0.9 °C 29.00 in /  981.9 hPa NNW 8.1 mph /  13 km/h 17.3 mph /  27.8 km/h 97 % 0.02 in /  0.51 mm
15:35 34.3 °F /  1.3 °C 33.5 °F /  0.8 °C 28.99 in /  981.6 hPa North 9.6 mph /  15.4 km/h 18.4 mph /  29.6 km/h 97 % 0.02 in /  0.51 mm
15:40 34.1 °F /  1.2 °C 33.3 °F /  0.7 °C 28.98 in /  981.3 hPa NNE 12.2 mph /  19.6 km/h 18.4 mph /  29.6 km/h 97 % 0.03 in /  0.76 mm
15:45 33.9 °F /  1.1 °C 33.1 °F /  0.6 °C 28.99 in /  981.6 hPa North 8.1 mph /  13 km/h 15.0 mph /  24.1 km/h 97 % 0.03 in /  0.76 mm
15:50 33.8 °F /  1 °C 33.0 °F /  0.6 °C 29.01 in /  982.3 hPa NNW 7.4 mph /  11.9 km/h 20.7 mph /  33.3 km/h 97 % 0.02 in /  0.51 mm
15:55 33.7 °F /  0.9 °C 32.9 °F /  0.5 °C 29.02 in /  982.6 hPa NNE 8.5 mph /  13.7 km/h 13.8 mph /  22.2 km/h 97 % 0.02 in /  0.51 mm
16:00 33.6 °F /  0.9 °C 32.8 °F /  0.4 °C 29.04 in /  983.3 hPa NNW 7.0 mph /  11.3 km/h 16.1 mph /  25.9 km/h 97 % 0.02 in /  0.51 mm
16:05 33.5 °F /  0.8 °C 32.7 °F /  0.4 °C 29.05 in /  983.6 hPa WNW 8.4 mph /  13.5 km/h 19.6 mph /  31.5 km/h 97 % 0.03 in /  0.76 mm
16:10 33.3 °F /  0.7 °C 32.5 °F /  0.3 °C 29.05 in /  983.6 hPa NW 7.6 mph /  12.2 km/h 20.7 mph /  33.3 km/h 97 % 0.03 in /  0.76 mm
16:16 33.2 °F /  0.7 °C 32.4 °F /  0.2 °C 29.05 in /  983.6 hPa NW 9.5 mph /  15.3 km/h 13.8 mph /  22.2 km/h 97 % 0.02 in /  0.51 mm
16:21 33.1 °F /  0.6 °C 32.3 °F /  0.2 °C 29.05 in /  983.6 hPa NNW 7.4 mph /  11.9 km/h 19.6 mph /  31.5 km/h 97 % 0.02 in /  0.51 mm
16:26 33.0 °F /  0.6 °C 32.2 °F /  0.1 °C 29.05 in /  983.6 hPa NW 8.6 mph /  13.8 km/h 15.0 mph /  24.1 km/h 97 % 0.02 in /  0.51 mm
16:30 32.9 °F /  0.5 °C 32.1 °F /  0.1 °C 29.05 in /  983.6 hPa WNW 8.0 mph /  12.9 km/h 15.0 mph /  24.1 km/h 97 % 0.03 in /  0.76 mm
16:36 32.5 °F /  0.3 °C 31.7 °F /  -0.2 °C 29.05 in /  983.6 hPa WNW 6.6 mph /  10.6 km/h 15.0 mph /  24.1 km/h 97 % 0.03 in /  0.76 mm
16:40 31.9 °F /  -0.1 °C 31.1 °F /  -0.5 °C 29.06 in /  984 hPa NW 9.0 mph /  14.5 km/h 21.9 mph /  35.2 km/h 97 % 0.02 in /  0.51 mm
16:46 31.4 °F /  -0.3 °C 30.6 °F /  -0.8 °C 29.06 in /  984 hPa NW 10.1 mph /  16.3 km/h 25.3 mph /  40.7 km/h 97 % 0.02 in /  0.51 mm
16:51 31.1 °F /  -0.5 °C 30.3 °F /  -0.9 °C 29.07 in /  984.3 hPa NNW 8.6 mph /  13.8 km/h 18.4 mph /  29.6 km/h 97 % 0.02 in /  0.51 mm
16:56 30.7 °F /  -0.7 °C 30.0 °F /  -1.1 °C 29.08 in /  984.6 hPa NW 11.0 mph /  17.7 km/h 18.4 mph /  29.6 km/h 97 % 0.02 in /  0.51 mm
17:01 30.5 °F /  -0.8 °C 29.8 °F /  -1.2 °C 29.08 in /  984.6 hPa West 9.7 mph /  15.6 km/h 18.0 mph /  29 km/h 97 % 0.02 in /  0.51 mm
17:06 30.2 °F /  -1 °C 29.5 °F /  -1.4 °C 29.09 in /  985 hPa WNW 8.0 mph /  12.9 km/h 16.1 mph /  25.9 km/h 97 % 0.02 in /  0.51 mm
17:11 29.9 °F /  -1.2 °C 29.2 °F /  -1.6 °C 29.10 in /  985.3 hPa West 5.8 mph /  9.3 km/h 16.1 mph /  25.9 km/h 97 % 0.02 in /  0.51 mm
17:16 29.7 °F /  -1.3 °C 29.0 °F /  -1.7 °C 29.11 in /  985.7 hPa WNW 6.8 mph /  10.9 km/h 14.0 mph /  22.5 km/h 97 % 0.02 in /  0.51 mm
17:21 29.6 °F /  -1.3 °C 28.9 °F /  -1.7 °C 29.12 in /  986 hPa NW 5.3 mph /  8.5 km/h 16.1 mph /  25.9 km/h 97 % 0.02 in /  0.51 mm
17:26 29.4 °F /  -1.4 °C 28.4 °F /  -2 °C 29.12 in /  986 hPa WNW 10.6 mph /  17.1 km/h 20.7 mph /  33.3 km/h 96 % 0.02 in /  0.51 mm
17:31 29.3 °F /  -1.5 °C 28.3 °F /  -2.1 °C 29.12 in /  986 hPa WNW 9.0 mph /  14.5 km/h 17.3 mph /  27.8 km/h 96 % 0.01 in /  0.25 mm
17:36 29.2 °F /  -1.6 °C 28.2 °F /  -2.1 °C 29.12 in /  986 hPa NW 10.5 mph /  16.9 km/h 19.6 mph /  31.5 km/h 96 % 0.01 in /  0.25 mm
17:41 29.1 °F /  -1.6 °C 28.1 °F /  -2.2 °C 29.13 in /  986.3 hPa NNW 9.0 mph /  14.5 km/h 21.9 mph /  35.2 km/h 96 % 0.01 in /  0.25 mm
17:46 29.0 °F /  -1.7 °C 28.0 °F /  -2.2 °C 29.14 in /  986.7 hPa NNW 10.2 mph /  16.4 km/h 18.4 mph /  29.6 km/h 96 % 0.01 in /  0.25 mm
17:51 28.9 °F /  -1.7 °C 27.9 °F /  -2.3 °C 29.13 in /  986.3 hPa WNW 15.5 mph /  24.9 km/h 26.5 mph /  42.6 km/h 96 % 0.01 in /  0.25 mm
17:56 28.8 °F /  -1.8 °C 27.5 °F /  -2.5 °C 29.14 in /  986.7 hPa WNW 9.4 mph /  15.1 km/h 25.3 mph /  40.7 km/h 95 % 0.01 in /  0.25 mm
18:01 28.7 °F /  -1.8 °C 27.4 °F /  -2.6 °C 29.16 in /  987.4 hPa WNW 9.0 mph /  14.5 km/h 19.6 mph /  31.5 km/h 95 % 0.02 in /  0.51 mm
18:06 28.7 °F /  -1.8 °C 27.4 °F /  -2.6 °C 29.14 in /  986.7 hPa NNW 12.0 mph /  19.3 km/h 19.6 mph /  31.5 km/h 95 % 0.01 in /  0.25 mm
18:11 28.6 °F /  -1.9 °C 27.4 °F /  -2.6 °C 29.15 in /  987 hPa West 10.0 mph /  16.1 km/h 20.7 mph /  33.3 km/h 95 % 0.01 in /  0.25 mm
18:16 28.6 °F /  -1.9 °C 27.4 °F /  -2.6 °C 29.16 in /  987.4 hPa NW 9.2 mph /  14.8 km/h 13.8 mph /  22.2 km/h 95 % 0.01 in /  0.25 mm
18:21 28.5 °F /  -1.9 °C 27.3 °F /  -2.6 °C 29.17 in /  987.7 hPa NW 8.6 mph /  13.8 km/h 17.3 mph /  27.8 km/h 95 % 0.01 in /  0.25 mm
18:26 28.5 °F /  -1.9 °C 27.3 °F /  -2.6 °C 29.18 in /  988 hPa WNW 7.5 mph /  12.1 km/h 15.0 mph /  24.1 km/h 95 % 0.01 in /  0.25 mm
18:31 28.4 °F /  -2 °C 27.2 °F /  -2.7 °C 29.19 in /  988.4 hPa West 10.9 mph /  17.5 km/h 17.3 mph /  27.8 km/h 95 % 0.01 in /  0.25 mm
18:36 28.5 °F /  -1.9 °C 27.3 °F /  -2.6 °C 29.19 in /  988.4 hPa NNW 11.3 mph /  18.2 km/h 19.6 mph /  31.5 km/h 95 % 0.01 in /  0.25 mm
18:41 28.4 °F /  -2 °C 26.9 °F /  -2.8 °C 29.20 in /  988.7 hPa NNW 10.8 mph /  17.4 km/h 23.0 mph /  37 km/h 94 % 0.01 in /  0.25 mm
18:46 28.5 °F /  -1.9 °C 27.0 °F /  -2.8 °C 29.21 in /  989.1 hPa NW 9.5 mph /  15.3 km/h 19.6 mph /  31.5 km/h 94 % 0.01 in /  0.25 mm
18:51 28.5 °F /  -1.9 °C 27.0 °F /  -2.8 °C 29.22 in /  989.4 hPa NW 10.6 mph /  17.1 km/h 16.1 mph /  25.9 km/h 94 % 0.01 in /  0.25 mm
18:56 28.6 °F /  -1.9 °C 27.1 °F /  -2.7 °C 29.22 in /  989.4 hPa West 9.8 mph /  15.8 km/h 19.6 mph /  31.5 km/h 94 % 0.01 in /  0.25 mm
19:01 28.7 °F /  -1.8 °C 26.9 °F /  -2.8 °C 29.23 in /  989.7 hPa WNW 10.4 mph /  16.7 km/h 15.0 mph /  24.1 km/h 93 % 0.00 in /  0 mm
19:06 28.8 °F /  -1.8 °C 27.0 °F /  -2.8 °C 29.23 in /  989.7 hPa WNW 10.6 mph /  17.1 km/h 24.2 mph /  38.9 km/h 93 % 0.00 in /  0 mm
19:11 28.9 °F /  -1.7 °C 27.1 °F /  -2.7 °C 29.23 in /  989.7 hPa West 6.9 mph /  11.1 km/h 22.0 mph /  35.4 km/h 93 % 0.00 in /  0 mm
19:16 28.9 °F /  -1.7 °C 26.9 °F /  -2.8 °C 29.25 in /  990.4 hPa WNW 10.3 mph /  16.6 km/h 17.3 mph /  27.8 km/h 92 % 0.01 in /  0.25 mm
19:21 29.0 °F /  -1.7 °C 27.0 °F /  -2.8 °C 29.25 in /  990.4 hPa NW 10.7 mph /  17.2 km/h 20.7 mph /  33.3 km/h 92 % 0.01 in /  0.25 mm
19:26 29.0 °F /  -1.7 °C 26.7 °F /  -2.9 °C 29.26 in /  990.7 hPa WNW 9.3 mph /  15 km/h 18.4 mph /  29.6 km/h 91 % 0.01 in /  0.25 mm
19:31 29.1 °F /  -1.6 °C 26.8 °F /  -2.9 °C 29.27 in /  991.1 hPa WNW 10.8 mph /  17.4 km/h 23.0 mph /  37 km/h 91 % 0.01 in /  0.25 mm
19:36 29.2 °F /  -1.6 °C 26.6 °F /  -3 °C 29.26 in /  990.7 hPa WNW 8.7 mph /  14 km/h 19.6 mph /  31.5 km/h 90 % 0.01 in /  0.25 mm
19:37 29.3 °F /  -1.5 °C 26.7 °F /  -2.9 °C 29.26 in /  990.7 hPa NNW 7.8 mph /  12.6 km/h 12.7 mph /  20.4 km/h 90 % 0.01 in /  0.25 mm
19:42 29.4 °F /  -1.4 °C 26.8 °F /  -2.9 °C 29.27 in /  991.1 hPa NW 10.0 mph /  16.1 km/h 19.6 mph /  31.5 km/h 90 % 0.01 in /  0.25 mm
19:47 29.5 °F /  -1.4 °C 26.9 °F /  -2.8 °C 29.27 in /  991.1 hPa WNW 9.1 mph /  14.6 km/h 21.9 mph /  35.2 km/h 90 % 0.01 in /  0.25 mm
19:52 29.6 °F /  -1.3 °C 26.8 °F /  -2.9 °C 29.27 in /  991.1 hPa WNW 11.9 mph /  19.2 km/h 23.0 mph /  37 km/h 89 % 0.01 in /  0.25 mm
19:57 29.7 °F /  -1.3 °C 26.9 °F /  -2.8 °C 29.27 in /  991.1 hPa WNW 10.9 mph /  17.5 km/h 19.0 mph /  30.6 km/h 89 % 0.01 in /  0.25 mm
20:02 29.9 °F /  -1.2 °C 27.1 °F /  -2.7 °C 29.27 in /  991.1 hPa WNW 6.9 mph /  11.1 km/h 11.5 mph /  18.5 km/h 89 % 0.01 in /  0.25 mm
20:07 30.0 °F /  -1.1 °C 26.9 °F /  -2.8 °C 29.28 in /  991.4 hPa NNW 6.0 mph /  9.7 km/h 21.9 mph /  35.2 km/h 88 % 0.01 in /  0.25 mm
20:12 30.1 °F /  -1.1 °C 27.0 °F /  -2.8 °C 29.28 in /  991.4 hPa WNW 9.2 mph /  14.8 km/h 18.0 mph /  29 km/h 88 % 0.01 in /  0.25 mm
20:17 30.2 °F /  -1 °C 27.1 °F /  -2.7 °C 29.29 in /  991.8 hPa West 10.7 mph /  17.2 km/h 13.0 mph /  20.9 km/h 88 % 0.00 in /  0 mm
20:22 30.3 °F /  -0.9 °C 27.2 °F /  -2.7 °C 29.29 in /  991.8 hPa West 7.0 mph /  11.3 km/h 16.1 mph /  25.9 km/h 88 % 0.00 in /  0 mm
20:27 30.4 °F /  -0.9 °C 27.0 °F /  -2.8 °C 29.29 in /  991.8 hPa NNW 11.4 mph /  18.3 km/h 17.3 mph /  27.8 km/h 87 % 0.00 in /  0 mm
20:32 30.5 °F /  -0.8 °C 27.1 °F /  -2.7 °C 29.30 in /  992.1 hPa WNW 11.1 mph /  17.9 km/h 21.9 mph /  35.2 km/h 87 % 0.00 in /  0 mm
20:37 30.5 °F /  -0.8 °C 27.1 °F /  -2.7 °C 29.30 in /  992.1 hPa WNW 7.7 mph /  12.4 km/h 20.7 mph /  33.3 km/h 87 % 0.00 in /  0 mm
20:42 30.6 °F /  -0.8 °C 27.2 °F /  -2.7 °C 29.31 in /  992.4 hPa West 9.7 mph /  15.6 km/h 17.3 mph /  27.8 km/h 87 % 0.00 in /  0 mm
20:48 30.6 °F /  -0.8 °C 27.2 °F /  -2.7 °C 29.32 in /  992.8 hPa West 4.5 mph /  7.2 km/h 11.5 mph /  18.5 km/h 87 % 0.00 in /  0 mm
20:53 30.6 °F /  -0.8 °C 27.5 °F /  -2.5 °C 29.32 in /  992.8 hPa WNW 7.7 mph /  12.4 km/h 16.0 mph /  25.7 km/h 88 % 0.00 in /  0 mm
20:58 30.6 °F /  -0.8 °C 27.5 °F /  -2.5 °C 29.32 in /  992.8 hPa WNW 7.2 mph /  11.6 km/h 20.7 mph /  33.3 km/h 88 % 0.00 in /  0 mm
21:03 30.6 °F /  -0.8 °C 27.5 °F /  -2.5 °C 29.32 in /  992.8 hPa West 7.0 mph /  11.3 km/h 21.0 mph /  33.8 km/h 88 % 0.00 in /  0 mm
21:08 30.5 °F /  -0.8 °C 27.6 °F /  -2.4 °C 29.32 in /  992.8 hPa NW 8.3 mph /  13.4 km/h 10.4 mph /  16.7 km/h 89 % 0.00 in /  0 mm
21:13 30.5 °F /  -0.8 °C 27.6 °F /  -2.4 °C 29.32 in /  992.8 hPa NW 10.2 mph /  16.4 km/h 20.0 mph /  32.2 km/h 89 % 0.00 in /  0 mm
21:18 30.4 °F /  -0.9 °C 27.0 °F /  -2.8 °C 29.33 in /  993.1 hPa West 5.0 mph /  8 km/h 17.0 mph /  27.4 km/h 87 % 0.00 in /  0 mm
21:23 30.4 °F /  -0.9 °C 26.7 °F /  -2.9 °C 29.34 in /  993.5 hPa West 9.0 mph /  14.5 km/h 26.0 mph /  41.8 km/h 86 % 0.00 in /  0 mm
21:28 30.3 °F /  -0.9 °C 26.3 °F /  -3.2 °C 29.34 in /  993.5 hPa West 12.0 mph /  19.3 km/h 23.0 mph /  37 km/h 85 % 0.00 in /  0 mm
21:33 30.2 °F /  -1 °C 26.2 °F /  -3.2 °C 29.35 in /  993.8 hPa WNW 9.0 mph /  14.5 km/h 17.0 mph /  27.4 km/h 85 % 0.00 in /  0 mm
21:38 30.2 °F /  -1 °C 26.2 °F /  -3.2 °C 29.35 in /  993.8 hPa West 5.0 mph /  8 km/h 13.0 mph /  20.9 km/h 85 % 0.00 in /  0 mm
21:43 30.1 °F /  -1.1 °C 25.8 °F /  -3.4 °C 29.36 in /  994.1 hPa West 8.0 mph /  12.9 km/h 15.0 mph /  24.1 km/h 84 % 0.00 in /  0 mm
21:53 29.8 °F /  -1.2 °C 25.0 °F /  -3.9 °C 29.37 in /  994.5 hPa West 8.8 mph /  14.2 km/h 19.6 mph /  31.5 km/h 82 % 0.00 in /  0 mm
21:58 29.6 °F /  -1.3 °C 24.5 °F /  -4.2 °C 29.37 in /  994.5 hPa SSW 10.2 mph /  16.4 km/h 13.8 mph /  22.2 km/h 81 % 0.00 in /  0 mm
22:03 29.3 °F /  -1.5 °C 24.2 °F /  -4.3 °C 29.38 in /  994.8 hPa NW 7.2 mph /  11.6 km/h 14.0 mph /  22.5 km/h 81 % 0.00 in /  0 mm
22:08 28.9 °F /  -1.7 °C 23.5 °F /  -4.7 °C 29.38 in /  994.8 hPa WSW 13.9 mph /  22.4 km/h 18.4 mph /  29.6 km/h 80 % 0.00 in /  0 mm
22:13 28.4 °F /  -2 °C 22.4 °F /  -5.3 °C 29.39 in /  995.1 hPa West 12.0 mph /  19.3 km/h 22.0 mph /  35.4 km/h 78 % 0.00 in /  0 mm
22:18 27.9 °F /  -2.3 °C 21.9 °F /  -5.6 °C 29.39 in /  995.1 hPa West 12.0 mph /  19.3 km/h 23.0 mph /  37 km/h 78 % 0.00 in /  0 mm
22:23 27.6 °F /  -2.4 °C 21.9 °F /  -5.6 °C 29.39 in /  995.1 hPa West 7.0 mph /  11.3 km/h 23.0 mph /  37 km/h 79 % 0.00 in /  0 mm
22:28 27.2 °F /  -2.7 °C 21.3 °F /  -5.9 °C 29.38 in /  994.8 hPa West 10.0 mph /  16.1 km/h 20.0 mph /  32.2 km/h 78 % 0.00 in /  0 mm
22:33 27.0 °F /  -2.8 °C 20.7 °F /  -6.3 °C 29.38 in /  994.8 hPa West 13.0 mph /  20.9 km/h 25.0 mph /  40.2 km/h 77 % 0.00 in /  0 mm
22:43 26.5 °F /  -3.1 °C 20.3 °F /  -6.5 °C 29.39 in /  995.1 hPa WNW 8.0 mph /  12.9 km/h 23.0 mph /  37 km/h 77 % 0.00 in /  0 mm
22:48 26.3 °F /  -3.2 °C 20.1 °F /  -6.6 °C 29.39 in /  995.1 hPa West 7.0 mph /  11.3 km/h 20.0 mph /  32.2 km/h 77 % 0.00 in /  0 mm
22:53 26.1 °F /  -3.3 °C 19.6 °F /  -6.9 °C 29.40 in /  995.5 hPa WSW 13.0 mph /  20.9 km/h 23.0 mph /  37 km/h 76 % 0.00 in /  0 mm
22:58 25.8 °F /  -3.4 °C 19.6 °F /  -6.9 °C 29.40 in /  995.5 hPa WNW 8.4 mph /  13.5 km/h 21.0 mph /  33.8 km/h 77 % 0.00 in /  0 mm
23:03 25.7 °F /  -3.5 °C 19.5 °F /  -6.9 °C 29.40 in /  995.5 hPa West 5.6 mph /  9 km/h 10.4 mph /  16.7 km/h 77 % 0.00 in /  0 mm
23:08 25.5 °F /  -3.6 °C 19.3 °F /  -7.1 °C 29.40 in /  995.5 hPa West 11.6 mph /  18.7 km/h 23.0 mph /  37 km/h 77 % 0.00 in /  0 mm
23:13 25.3 °F /  -3.7 °C 19.1 °F /  -7.2 °C 29.41 in /  995.8 hPa West 8.8 mph /  14.2 km/h 13.8 mph /  22.2 km/h 77 % 0.00 in /  0 mm
23:18 25.1 °F /  -3.8 °C 18.9 °F /  -7.3 °C 29.41 in /  995.8 hPa West 11.3 mph /  18.2 km/h 20.0 mph /  32.2 km/h 77 % 0.00 in /  0 mm
23:23 25.0 °F /  -3.9 °C 18.5 °F /  -7.5 °C 29.42 in /  996.2 hPa WSW 12.5 mph /  20.1 km/h 19.6 mph /  31.5 km/h 76 % 0.00 in /  0 mm
23:28 24.8 °F /  -4 °C 18.0 °F /  -7.8 °C 29.43 in /  996.5 hPa SW 12.4 mph /  20 km/h 18.4 mph /  29.6 km/h 75 % 0.00 in /  0 mm
23:33 24.7 °F /  -4.1 °C 18.2 °F /  -7.7 °C 29.43 in /  996.5 hPa WSW 7.1 mph /  11.4 km/h 13.8 mph /  22.2 km/h 76 % 0.00 in /  0 mm
23:43 24.3 °F /  -4.3 °C 17.5 °F /  -8.1 °C 29.44 in /  996.8 hPa WNW 8.2 mph /  13.2 km/h 19.6 mph /  31.5 km/h 75 % 0.00 in /  0 mm
23:48 24.1 °F /  -4.4 °C 17.3 °F /  -8.2 °C 29.44 in /  996.8 hPa West 7.8 mph /  12.6 km/h 13.8 mph /  22.2 km/h 75 % 0.00 in /  0 mm
23:53 24.0 °F /  -4.4 °C 17.2 °F /  -8.2 °C 29.44 in /  996.8 hPa NW 7.4 mph /  11.9 km/h 17.3 mph /  27.8 km/h 75 % 0.00 in /  0 mm
23:58 23.9 °F /  -4.5 °C 17.1 °F /  -8.3 °C 29.43 in /  996.5 hPa WSW 9.8 mph /  15.8 km/h 19.6 mph /  31.5 km/h 75 % 0.00 in /  0 mm
Crab Meadow Weather
Compliments of Weather Underground - 3 mb

Script developed by  Jim McMurry - jmcmurry@mwt.net Adapted for the template by  Wim van der Kuil - Leuven-Template.eu

Lightning: The average number of deaths from lightning is more than 100 a year with several more deaths from lightning related fires. Lightning injuries account for 3-5 times than those of lightning deaths.